createdAt,value
2023-04-25T00:01:15.123Z,7.77
2023-04-25T00:04:25.181Z,7.47
2023-04-25T00:07:33.780Z,7.57
2023-04-25T00:10:42.076Z,7.60
2023-04-25T00:13:50.890Z,7.97
2023-04-25T00:17:00.063Z,7.90
2023-04-25T00:20:11.170Z,7.90
2023-04-25T00:23:19.945Z,8.37
2023-04-25T00:26:28.314Z,7.43
2023-04-25T00:29:36.670Z,8.57
2023-04-25T00:32:45.119Z,8.53
2023-04-25T00:35:54.979Z,8.77
2023-04-25T00:39:03.863Z,7.80
2023-04-25T00:42:13.028Z,8.23
2023-04-25T00:45:21.942Z,8.03
2023-04-25T00:48:30.290Z,8.00
2023-04-25T00:51:40.122Z,8.20
2023-04-25T00:54:48.571Z,8.17
2023-04-25T00:57:57.156Z,8.33
2023-04-25T01:01:05.618Z,8.33
2023-04-25T01:04:15.311Z,7.63
2023-04-25T01:07:25.416Z,7.93
2023-04-25T01:10:33.833Z,7.47
2023-04-25T01:13:42.196Z,7.33
2023-04-25T01:16:50.612Z,7.00
2023-04-25T01:20:01.526Z,7.27
2023-04-25T01:23:11.811Z,6.50
2023-04-25T01:26:22.229Z,6.97
2023-04-25T01:29:31.702Z,6.97
2023-04-25T01:32:40.325Z,6.87
2023-04-25T01:35:49.388Z,7.53
2023-04-25T01:38:59.336Z,7.50
2023-04-25T01:42:07.912Z,7.57
2023-04-25T01:45:16.332Z,7.20
2023-04-25T01:48:24.684Z,7.03
2023-04-25T01:51:33.286Z,7.50
2023-04-25T01:54:45.683Z,7.13
2023-04-25T01:57:55.040Z,7.70
2023-04-25T02:01:12.253Z,7.63
2023-04-25T02:04:27.280Z,6.93
2023-04-25T02:07:35.724Z,7.87
2023-04-25T02:10:45.665Z,7.80
2023-04-25T02:14:01.016Z,7.30
2023-04-25T02:17:27.473Z,7.50
2023-04-25T02:20:38.216Z,8.63
2023-04-25T02:23:50.150Z,7.87
2023-04-25T02:27:00.107Z,7.90
2023-04-25T02:30:09.578Z,7.13
2023-04-25T02:33:18.664Z,6.90
2023-04-25T02:36:27.396Z,6.77
2023-04-25T02:39:35.978Z,6.87
2023-04-25T02:42:46.764Z,7.10
2023-04-25T02:45:55.208Z,7.87
2023-04-25T02:49:03.521Z,7.63
2023-04-25T02:52:12.423Z,8.27
2023-04-25T02:55:21.194Z,9.23
2023-04-25T02:58:31.396Z,9.07
2023-04-25T03:01:39.817Z,8.40
2023-04-25T03:04:49.073Z,9.10
2023-04-25T03:07:57.683Z,9.80
2023-04-25T03:11:06.132Z,9.80
2023-04-25T03:14:16.251Z,9.87
2023-04-25T03:17:24.701Z,9.50
2023-04-25T03:20:33.193Z,9.57
2023-04-25T03:23:41.548Z,9.37
2023-04-25T03:26:50.105Z,9.23
2023-04-25T03:29:59.827Z,8.37
2023-04-25T03:33:08.388Z,8.00
2023-04-25T03:36:16.804Z,8.83
2023-04-25T03:39:25.420Z,8.67
2023-04-25T03:42:34.780Z,8.53
2023-04-25T03:45:45.151Z,7.57
2023-04-25T03:48:53.757Z,8.20
2023-04-25T03:52:07.761Z,7.43
2023-04-25T03:55:21.027Z,7.20
2023-04-25T03:58:29.715Z,4.30
2023-04-25T04:01:42.344Z,2.80
2023-04-25T04:04:51.508Z,2.23
2023-04-25T04:08:00.281Z,2.07
2023-04-25T04:11:10.757Z,2.30
2023-04-25T04:14:19.389Z,2.37
2023-04-25T04:17:30.635Z,2.47
2023-04-25T04:20:39.633Z,2.10
2023-04-25T04:23:50.892Z,2.20
2023-04-25T04:26:59.968Z,1.83
2023-04-25T04:30:30.522Z,1.80
2023-04-25T04:33:45.691Z,1.90
2023-04-25T04:36:54.117Z,2.00
2023-04-25T04:40:06.879Z,1.80
2023-04-25T04:43:25.427Z,2.20
2023-04-25T04:47:07.205Z,1.80
2023-04-25T04:50:46.061Z,1.70
2023-04-25T04:54:25.150Z,1.40
2023-04-25T04:57:52.050Z,1.87
2023-04-25T05:01:17.121Z,1.70
2023-04-25T05:04:45.209Z,1.73
2023-04-25T05:08:18.245Z,1.97
2023-04-25T05:11:46.870Z,2.87
2023-04-25T05:15:06.823Z,3.20
2023-04-25T05:18:35.467Z,3.20
2023-04-25T05:22:16.402Z,2.73
2023-04-25T05:25:52.291Z,2.70
2023-04-25T05:29:21.158Z,2.63
2023-04-25T05:32:43.227Z,2.23
2023-04-25T05:35:52.394Z,2.37
2023-04-25T05:39:01.157Z,2.50
2023-04-25T05:42:29.332Z,2.70
2023-04-25T05:45:57.980Z,2.30
2023-04-25T05:49:23.310Z,2.07
2023-04-25T05:52:43.487Z,2.27
2023-04-25T05:56:06.798Z,2.40
2023-04-25T05:59:22.195Z,2.60
2023-04-25T06:02:30.822Z,2.57
2023-04-25T06:05:39.583Z,2.30
2023-04-25T06:08:47.891Z,2.20
2023-04-25T06:11:56.393Z,2.63
2023-04-25T06:15:20.141Z,2.23
2023-04-25T06:18:37.918Z,1.40
2023-04-25T06:21:47.131Z,1.30
2023-04-25T06:24:58.439Z,1.20
2023-04-25T06:28:06.928Z,1.20
2023-04-25T06:31:17.130Z,1.00
2023-04-25T06:34:27.080Z,1.10
2023-04-25T06:37:35.585Z,1.80
2023-04-25T06:40:44.026Z,1.23
2023-04-25T06:43:52.552Z,0.80
2023-04-25T06:47:21.742Z,0.70
2023-04-25T06:50:31.123Z,0.97
2023-04-25T06:53:39.773Z,0.70
2023-04-25T06:56:51.432Z,0.97
2023-04-25T07:00:01.508Z,0.70
2023-04-25T07:03:13.035Z,0.43
2023-04-25T07:06:21.763Z,0.60
2023-04-25T07:09:30.418Z,0.40
2023-04-25T07:12:38.783Z,0.37
2023-04-25T07:15:49.172Z,0.40
2023-04-25T07:19:01.259Z,0.57
2023-04-25T07:22:10.363Z,0.40
2023-04-25T07:25:21.896Z,0.60
2023-04-25T07:28:31.268Z,0.57
2023-04-25T07:31:39.977Z,0.50
2023-04-25T07:34:49.873Z,0.50
2023-04-25T07:37:58.323Z,0.50
2023-04-25T07:41:09.240Z,0.50
2023-04-25T07:44:18.046Z,0.37
2023-04-25T07:47:26.899Z,0.23
2023-04-25T07:50:36.930Z,0.60
2023-04-25T07:53:45.519Z,0.40
2023-04-25T07:56:57.178Z,0.40
2023-04-25T08:00:12.568Z,0.30
2023-04-25T08:03:28.223Z,0.30
2023-04-25T08:06:39.309Z,0.40
2023-04-25T08:10:03.638Z,0.20
2023-04-25T08:13:23.274Z,0.20
2023-04-25T08:16:43.409Z,0.50
2023-04-25T08:19:52.870Z,0.30
2023-04-25T08:23:18.591Z,0.20
2023-04-25T08:26:41.468Z,0.20
2023-04-25T08:30:00.606Z,0.30
2023-04-25T08:33:16.112Z,0.30
2023-04-25T08:36:49.482Z,0.27
2023-04-25T08:40:21.580Z,0.40
2023-04-25T08:43:33.493Z,0.23
2023-04-25T08:46:48.904Z,0.20
2023-04-25T08:50:08.412Z,0.30
2023-04-25T08:53:31.566Z,0.20
2023-04-25T08:56:56.166Z,0.20
2023-04-25T09:00:14.404Z,0.23
2023-04-25T09:03:31.265Z,0.57
2023-04-25T09:06:40.965Z,0.30
2023-04-25T09:10:00.902Z,0.47
2023-04-25T09:13:19.280Z,0.37
2023-04-25T09:17:04.732Z,0.30
2023-04-25T09:20:59.726Z,0.13
2023-04-25T09:24:11.199Z,0.33
2023-04-25T09:27:29.118Z,0.37
2023-04-25T09:30:59.448Z,0.23
2023-04-25T09:34:21.777Z,0.30
2023-04-25T09:37:36.853Z,0.20
2023-04-25T09:41:03.855Z,0.40
2023-04-25T09:44:25.646Z,0.20
2023-04-25T09:47:40.036Z,0.30
2023-04-25T09:51:07.142Z,0.13
2023-04-25T09:54:16.134Z,0.30
2023-04-25T09:57:29.460Z,0.23
2023-04-25T10:00:50.352Z,0.77
2023-04-25T10:04:13.362Z,0.40
2023-04-25T10:07:32.688Z,0.90
2023-04-25T10:10:42.999Z,0.47
2023-04-25T10:13:52.842Z,0.40
2023-04-25T10:17:01.670Z,0.63
2023-04-25T10:20:13.319Z,0.50
2023-04-25T10:23:22.902Z,0.40
2023-04-25T10:26:31.970Z,0.63
2023-04-25T10:29:40.348Z,0.40
2023-04-25T10:32:51.526Z,0.43
2023-04-25T10:36:12.892Z,0.50
2023-04-25T10:39:25.916Z,0.57
2023-04-25T10:42:34.277Z,0.43
2023-04-25T10:45:53.844Z,0.57
2023-04-25T10:49:04.136Z,0.60
2023-04-25T10:52:29.182Z,0.40
2023-04-25T10:55:52.733Z,0.33
2023-04-25T10:59:10.334Z,0.40
2023-04-25T11:02:19.093Z,0.50
2023-04-25T11:05:36.547Z,0.50
2023-04-25T11:08:53.185Z,0.37
2023-04-25T11:12:02.558Z,0.43
2023-04-25T11:15:11.801Z,0.40
2023-04-25T11:18:21.772Z,0.70
2023-04-25T11:21:32.794Z,0.53
2023-04-25T11:24:42.791Z,0.43
2023-04-25T11:27:54.993Z,0.60
2023-04-25T11:31:06.284Z,0.60
2023-04-25T11:34:19.167Z,0.87
2023-04-25T11:37:28.043Z,0.53
2023-04-25T11:40:38.205Z,0.50
2023-04-25T11:43:46.763Z,0.67
2023-04-25T11:46:55.132Z,0.93
2023-04-25T11:50:04.696Z,0.40
2023-04-25T11:53:13.259Z,0.53
2023-04-25T11:56:23.060Z,0.80
2023-04-25T11:59:32.332Z,0.70
2023-04-25T12:02:43.414Z,0.60
2023-04-25T12:05:53.496Z,0.60
2023-04-25T12:09:06.010Z,0.70
2023-04-25T12:12:16.599Z,0.77
2023-04-25T12:15:28.355Z,0.40
2023-04-25T12:18:38.989Z,0.50
2023-04-25T12:25:00.505Z,0.60
2023-04-25T12:28:14.582Z,0.60
2023-04-25T12:31:25.097Z,0.50
2023-04-25T12:34:36.914Z,0.50
2023-04-25T12:37:45.416Z,0.50
2023-04-25T12:40:53.856Z,0.60
2023-04-25T12:44:03.529Z,0.30
2023-04-25T12:47:11.924Z,0.60
2023-04-25T12:50:20.379Z,0.57
2023-04-25T12:53:28.712Z,0.50
2023-04-25T12:56:38.058Z,0.50
2023-04-25T12:59:47.777Z,0.50
2023-04-25T13:02:56.454Z,0.57
2023-04-25T13:06:05.629Z,0.50
2023-04-25T13:09:16.388Z,0.40
2023-04-25T13:12:24.786Z,0.60
2023-04-25T13:15:34.896Z,0.60
2023-04-25T13:18:43.500Z,0.60
2023-04-25T13:21:55.449Z,0.60
2023-04-25T13:25:04.169Z,0.50
2023-04-25T13:28:13.621Z,0.60
2023-04-25T13:31:23.466Z,0.50
2023-04-25T13:34:31.871Z,0.63
2023-04-25T13:37:43.121Z,0.60
2023-04-25T13:40:53.225Z,0.33
2023-04-25T13:44:02.011Z,0.50
2023-04-25T13:47:11.879Z,0.73
2023-04-25T13:50:20.345Z,0.50
2023-04-25T13:53:28.803Z,0.60
2023-04-25T13:56:37.196Z,0.80
2023-04-25T13:59:45.498Z,0.40
2023-04-25T14:02:55.442Z,0.40
2023-04-25T14:06:04.005Z,0.50
2023-04-25T14:09:14.178Z,0.40
2023-04-25T14:12:22.540Z,0.40
2023-04-25T14:15:31.781Z,0.40
2023-04-25T14:18:41.986Z,0.50
2023-04-25T14:21:50.402Z,0.50
2023-04-25T14:24:59.119Z,0.50
2023-04-25T14:28:07.632Z,0.40
2023-04-25T14:31:16.507Z,0.30
2023-04-25T14:34:26.380Z,0.50
2023-04-25T14:37:34.993Z,0.37
2023-04-25T14:40:43.595Z,0.47
2023-04-25T14:43:52.269Z,0.70
2023-04-25T14:47:01.117Z,0.40
2023-04-25T14:50:12.521Z,0.40
2023-04-25T14:53:20.980Z,0.50
2023-04-25T14:56:29.382Z,0.60
2023-04-25T14:59:38.778Z,0.33
2023-04-25T15:02:48.057Z,0.60
2023-04-25T15:05:58.242Z,0.40
2023-04-25T15:09:11.673Z,0.30
2023-04-25T15:12:21.109Z,0.50
2023-04-25T15:15:29.530Z,0.40
2023-04-25T15:18:37.824Z,0.20
2023-04-25T15:21:47.763Z,0.40
2023-04-25T15:24:57.211Z,0.50
2023-04-25T15:28:05.741Z,0.37
2023-04-25T15:31:14.453Z,0.40
2023-04-25T15:34:25.953Z,0.40
2023-04-25T15:37:36.172Z,0.40
2023-04-25T15:40:48.717Z,0.37
2023-04-25T15:43:57.099Z,0.30
2023-04-25T15:47:05.525Z,0.47
2023-04-25T15:50:25.851Z,0.40
2023-04-25T15:53:38.430Z,0.40
2023-04-25T15:57:13.586Z,0.60
2023-04-25T16:00:23.989Z,0.40
2023-04-25T16:03:35.506Z,0.57
2023-04-25T16:06:44.968Z,0.50
2023-04-25T16:09:57.515Z,0.40
2023-04-25T16:13:06.080Z,0.40
2023-04-25T16:16:15.131Z,0.30
2023-04-25T16:19:23.660Z,0.60
2023-04-25T16:22:32.755Z,0.43
2023-04-25T16:25:43.121Z,0.20
2023-04-25T16:28:51.494Z,0.30
2023-04-25T16:32:00.289Z,0.30
2023-04-25T16:35:10.719Z,0.30
2023-04-25T16:38:19.101Z,0.20
2023-04-25T16:41:30.482Z,0.10
2023-04-25T16:44:39.004Z,0.43
2023-04-25T16:47:50.072Z,0.40
2023-04-25T16:50:58.794Z,0.30
2023-04-25T16:54:07.199Z,0.30
2023-04-25T16:57:17.871Z,0.47
2023-04-25T17:00:26.701Z,0.30
2023-04-25T17:03:35.802Z,0.30
2023-04-25T17:06:44.659Z,0.33
2023-04-25T17:09:53.329Z,0.20
2023-04-25T17:13:03.239Z,0.20
2023-04-25T17:16:13.673Z,0.30
2023-04-25T17:19:22.351Z,0.20
2023-04-25T17:22:31.049Z,0.33
2023-04-25T17:25:39.471Z,0.13
2023-04-25T17:28:50.729Z,0.43
2023-04-25T17:31:59.371Z,0.30
2023-04-25T17:35:08.243Z,0.30
2023-04-25T17:38:16.600Z,0.20
2023-04-25T17:41:25.332Z,0.30
2023-04-25T17:44:36.497Z,0.20
2023-04-25T17:47:48.101Z,0.47
2023-04-25T17:51:00.689Z,0.23
2023-04-25T17:54:09.972Z,0.20
2023-04-25T17:57:18.548Z,0.30
2023-04-25T18:00:28.650Z,0.33
2023-04-25T18:03:38.680Z,0.30
2023-04-25T18:06:48.677Z,0.30
2023-04-25T18:09:57.028Z,0.40
2023-04-25T18:13:05.460Z,0.50
2023-04-25T18:16:15.966Z,0.30
2023-04-25T18:19:24.547Z,0.40
2023-04-25T18:22:33.179Z,0.40
2023-04-25T18:25:44.557Z,0.60
2023-04-25T18:28:53.231Z,0.30
2023-04-25T18:32:04.901Z,0.20
2023-04-25T18:35:13.906Z,1.03
2023-04-25T18:38:34.794Z,0.50
2023-04-25T18:41:55.119Z,0.27
2023-04-25T18:45:08.255Z,0.60
2023-04-25T18:48:18.058Z,0.70
2023-04-25T18:51:29.330Z,1.80
2023-04-25T18:54:38.253Z,1.57
2023-04-25T18:57:46.758Z,1.30
2023-04-25T19:00:55.609Z,1.00
2023-04-25T19:04:06.847Z,1.07
2023-04-25T19:07:15.960Z,1.03
2023-04-25T19:10:24.373Z,0.83
2023-04-25T19:13:32.752Z,0.73
2023-04-25T19:16:41.744Z,1.50
2023-04-25T19:19:51.758Z,0.90
2023-04-25T19:23:00.130Z,0.80
2023-04-25T19:26:08.736Z,0.60
2023-04-25T19:29:17.409Z,0.80
2023-04-25T19:32:26.444Z,0.67
2023-04-25T19:35:36.229Z,0.80
2023-04-25T19:38:44.554Z,0.67
2023-04-25T19:41:52.857Z,0.80
2023-04-25T19:45:01.680Z,0.73
2023-04-25T19:48:10.509Z,0.70
2023-04-25T19:51:21.053Z,0.63
2023-04-25T19:54:30.224Z,0.70
2023-04-25T19:57:40.361Z,0.63
2023-04-25T20:00:54.187Z,0.53
2023-04-25T20:04:02.598Z,0.33
2023-04-25T20:07:12.355Z,0.30
2023-04-25T20:10:20.764Z,0.47
2023-04-25T20:13:29.696Z,0.40
2023-04-25T20:16:38.152Z,0.60
2023-04-25T20:19:46.610Z,0.37
2023-04-25T20:22:56.482Z,0.30
2023-04-25T20:26:05.156Z,0.40
2023-04-25T20:29:13.533Z,0.70
2023-04-25T20:32:21.873Z,0.60
2023-04-25T20:35:30.342Z,0.90
2023-04-25T20:38:42.934Z,0.90
2023-04-25T20:41:51.786Z,1.03
2023-04-25T20:45:02.313Z,0.80
2023-04-25T20:48:12.435Z,0.87
2023-04-25T20:51:21.530Z,0.60
2023-04-25T20:54:35.649Z,0.60
2023-04-25T20:57:45.993Z,0.70
2023-04-25T21:00:56.429Z,0.30
2023-04-25T21:04:07.905Z,0.37
2023-04-25T21:07:16.932Z,0.23
2023-04-25T21:10:27.541Z,0.20
2023-04-25T21:13:36.217Z,0.30
2023-04-25T21:16:44.649Z,0.20
2023-04-25T21:19:53.054Z,0.20
2023-04-25T21:23:01.494Z,0.20
2023-04-25T21:26:11.170Z,0.10
2023-04-25T21:29:19.544Z,0.10
2023-04-25T21:32:28.103Z,0.20
2023-04-25T21:35:37.132Z,0.30
2023-04-25T21:38:45.735Z,0.10
2023-04-25T21:41:56.188Z,0.30
2023-04-25T21:45:06.392Z,0.27
2023-04-25T21:48:14.764Z,0.20
2023-04-25T21:51:23.346Z,0.30
2023-04-25T21:54:31.832Z,0.20
2023-04-25T21:57:42.077Z,0.10
2023-04-25T22:00:50.697Z,0.10
2023-04-25T22:03:59.093Z,0.20
2023-04-25T22:07:07.686Z,0.30
2023-04-25T22:10:16.268Z,0.17
2023-04-25T22:13:28.495Z,0.20
2023-04-25T22:16:37.574Z,0.30
2023-04-25T22:19:47.059Z,0.23
2023-04-25T22:22:56.577Z,0.20
2023-04-25T22:26:06.030Z,0.20
2023-04-25T22:29:16.178Z,0.10
2023-04-25T22:32:24.777Z,0.20
2023-04-25T22:35:33.151Z,0.20
2023-04-25T22:38:43.429Z,0.27
2023-04-25T22:41:52.991Z,0.40
2023-04-25T22:45:03.028Z,0.20
2023-04-25T22:48:11.560Z,0.20
2023-04-25T22:51:19.955Z,0.23
2023-04-25T22:54:28.598Z,0.20
2023-04-25T22:57:38.752Z,0.10
2023-04-25T23:00:48.566Z,0.40
2023-04-25T23:03:58.543Z,0.30
2023-04-25T23:07:07.198Z,0.20
2023-04-25T23:10:15.621Z,0.30
2023-04-25T23:13:24.822Z,0.30
2023-04-25T23:16:35.515Z,0.10
2023-04-25T23:19:44.156Z,0.20
2023-04-25T23:22:52.719Z,0.30
2023-04-25T23:26:01.008Z,0.17
2023-04-25T23:29:09.598Z,0.30
2023-04-25T23:32:19.484Z,0.20
2023-04-25T23:35:28.849Z,0.50
2023-04-25T23:38:37.946Z,0.30
2023-04-25T23:41:46.555Z,0.30
2023-04-25T23:44:54.954Z,0.20
2023-04-25T23:48:04.929Z,0.20
2023-04-25T23:51:13.433Z,0.33
2023-04-25T23:54:21.777Z,0.30
2023-04-25T23:57:30.125Z,0.40
